sensor_id;sensor_type;location;lat;lon;timestamp;pressure;altitude;pressure_sealevel;temperature;humidity
66668;BME280;57205;51.438;-2.006;2022-10-17T00:01:26;100108.91;;;14.40;100.00
66668;BME280;57205;51.438;-2.006;2022-10-17T00:03:51;100124.78;;;14.41;100.00
66668;BME280;57205;51.438;-2.006;2022-10-17T00:06:17;100117.81;;;14.40;100.00
66668;BME280;57205;51.438;-2.006;2022-10-17T00:08:43;100119.41;;;14.41;100.00
66668;BME280;57205;51.438;-2.006;2022-10-17T00:11:21;100124.78;;;14.41;100.00
66668;BME280;57205;51.438;-2.006;2022-10-17T00:13:49;100119.41;;;14.41;100.00
66668;BME280;57205;51.438;-2.006;2022-10-17T00:16:25;100113.03;;;14.37;100.00
66668;BME280;57205;51.438;-2.006;2022-10-17T00:18:51;100114.63;;;14.38;100.00
66668;BME280;57205;51.438;-2.006;2022-10-17T00:21:18;100119.81;;;14.35;100.00
66668;BME280;57205;51.438;-2.006;2022-10-17T00:23:45;100119.00;;;14.34;100.00
66668;BME280;57205;51.438;-2.006;2022-10-17T00:26:11;100123.31;;;14.35;100.00
66668;BME280;57205;51.438;-2.006;2022-10-17T00:28:37;100114.22;;;14.31;100.00
66668;BME280;57205;51.438;-2.006;2022-10-17T00:31:04;100122.31;;;14.31;100.00
66668;BME280;57205;51.438;-2.006;2022-10-17T00:33:32;100120.22;;;14.28;100.00
66668;BME280;57205;51.438;-2.006;2022-10-17T00:36:05;100125.06;;;14.26;100.00
66668;BME280;57205;51.438;-2.006;2022-10-17T00:38:31;100125.38;;;14.25;100.00
66668;BME280;57205;51.438;-2.006;2022-10-17T00:40:56;100132.34;;;14.26;100.00
66668;BME280;57205;51.438;-2.006;2022-10-17T00:43:22;100129.66;;;14.26;100.00
66668;BME280;57205;51.438;-2.006;2022-10-17T00:45:48;100128.59;;;14.27;100.00
66668;BME280;57205;51.438;-2.006;2022-10-17T00:48:14;100124.81;;;14.28;100.00
66668;BME280;57205;51.438;-2.006;2022-10-17T00:50:43;100122.91;;;14.28;100.00
66668;BME280;57205;51.438;-2.006;2022-10-17T00:53:11;100126.38;;;14.29;100.00
66668;BME280;57205;51.438;-2.006;2022-10-17T00:55:49;100111.03;;;14.29;100.00
66668;BME280;57205;51.438;-2.006;2022-10-17T00:58:15;100106.16;;;14.31;100.00
66668;BME280;57205;51.438;-2.006;2022-10-17T01:00:41;100113.72;;;14.29;100.00
66668;BME280;57205;51.438;-2.006;2022-10-17T01:03:07;100121.81;;;14.29;100.00
66668;BME280;57205;51.438;-2.006;2022-10-17T01:05:33;100132.88;;;14.28;100.00
66668;BME280;57205;51.438;-2.006;2022-10-17T01:07:59;100147.44;;;14.27;100.00
66668;BME280;57205;51.438;-2.006;2022-10-17T01:10:53;100142.53;;;14.29;100.00
66668;BME280;57205;51.438;-2.006;2022-10-17T01:13:29;100144.94;;;14.30;100.00
66668;BME280;57205;51.438;-2.006;2022-10-17T01:18:54;100160.28;;;14.30;100.00
66668;BME280;57205;51.438;-2.006;2022-10-17T01:21:41;100162.88;;;14.35;100.00
66668;BME280;57205;51.438;-2.006;2022-10-17T01:24:39;100190.59;;;14.35;100.00
66668;BME280;57205;51.438;-2.006;2022-10-17T01:32:41;100214.22;;;14.38;100.00
66668;BME280;57205;51.438;-2.006;2022-10-17T01:37:59;100222.28;;;14.38;100.00
66668;BME280;57205;51.438;-2.006;2022-10-17T01:40:33;100229.78;;;14.41;100.00
66668;BME280;57205;51.438;-2.006;2022-10-17T01:43:06;100218.41;;;14.44;100.00
66668;BME280;57205;51.438;-2.006;2022-10-17T01:45:54;100225.88;;;14.47;100.00
66668;BME280;57205;51.438;-2.006;2022-10-17T01:48:31;100218.28;;;14.49;100.00
66668;BME280;57205;51.438;-2.006;2022-10-17T01:51:09;100222.09;;;14.48;100.00
66668;BME280;57205;51.438;-2.006;2022-10-17T01:53:42;100229.06;;;14.49;100.00
66668;BME280;57205;51.438;-2.006;2022-10-17T01:56:12;100224.78;;;14.48;100.00
66668;BME280;57205;51.438;-2.006;2022-10-17T01:58:49;100237.13;;;14.49;100.00
66668;BME280;57205;51.438;-2.006;2022-10-17T02:01:17;100244.72;;;14.47;100.00
66668;BME280;57205;51.438;-2.006;2022-10-17T02:03:44;100249.03;;;14.48;100.00
66668;BME280;57205;51.438;-2.006;2022-10-17T02:06:11;100247.72;;;14.46;100.00
66668;BME280;57205;51.438;-2.006;2022-10-17T02:08:44;100243.94;;;14.47;100.00
66668;BME280;57205;51.438;-2.006;2022-10-17T02:11:24;100235.56;;;14.48;100.00
66668;BME280;57205;51.438;-2.006;2022-10-17T02:13:57;100223.19;;;14.47;100.00
66668;BME280;57205;51.438;-2.006;2022-10-17T02:19:11;100222.72;;;14.45;100.00
66668;BME280;57205;51.438;-2.006;2022-10-17T02:22:03;100212.22;;;14.44;100.00
66668;BME280;57205;51.438;-2.006;2022-10-17T02:25:01;100223.59;;;14.41;100.00
66668;BME280;57205;51.438;-2.006;2022-10-17T02:30:00;100243.81;;;14.38;100.00
66668;BME280;57205;51.438;-2.006;2022-10-17T02:35:13;100243.81;;;14.38;100.00
66668;BME280;57205;51.438;-2.006;2022-10-17T02:37:41;100248.69;;;14.36;100.00
66668;BME280;57205;51.438;-2.006;2022-10-17T02:40:10;100250.63;;;14.36;100.00
66668;BME280;57205;51.438;-2.006;2022-10-17T02:42:40;100249.81;;;14.35;100.00
66668;BME280;57205;51.438;-2.006;2022-10-17T02:45:08;100246.59;;;14.33;100.00
66668;BME280;57205;51.438;-2.006;2022-10-17T02:50:05;100244.44;;;14.35;100.00
66668;BME280;57205;51.438;-2.006;2022-10-17T02:52:38;100236.84;;;14.37;100.00
66668;BME280;57205;51.438;-2.006;2022-10-17T02:57:36;100238.44;;;14.38;100.00
66668;BME280;57205;51.438;-2.006;2022-10-17T03:00:05;100239.03;;;14.35;100.00
66668;BME280;57205;51.438;-2.006;2022-10-17T03:02:52;100244.44;;;14.35;100.00
66668;BME280;57205;51.438;-2.006;2022-10-17T03:05:26;100235.03;;;14.33;100.00
66668;BME280;57205;51.438;-2.006;2022-10-17T03:07:53;100239.66;;;14.32;100.00
66668;BME280;57205;51.438;-2.006;2022-10-17T03:10:19;100235.84;;;14.33;100.00
66668;BME280;57205;51.438;-2.006;2022-10-17T03:12:45;100244.22;;;14.32;100.00
66668;BME280;57205;51.438;-2.006;2022-10-17T03:15:11;100256.38;;;14.29;100.00
66668;BME280;57205;51.438;-2.006;2022-10-17T03:17:37;100256.38;;;14.29;100.00
66668;BME280;57205;51.438;-2.006;2022-10-17T03:20:03;100253.19;;;14.27;100.00
66668;BME280;57205;51.438;-2.006;2022-10-17T03:22:29;100249.16;;;14.25;100.00
66668;BME280;57205;51.438;-2.006;2022-10-17T03:24:54;100262.91;;;14.23;100.00
66668;BME280;57205;51.438;-2.006;2022-10-17T03:27:20;100273.97;;;14.22;100.00
66668;BME280;57205;51.438;-2.006;2022-10-17T03:29:45;100283.16;;;14.21;100.00
66668;BME280;57205;51.438;-2.006;2022-10-17T03:32:11;100287.22;;;14.18;100.00
66668;BME280;57205;51.438;-2.006;2022-10-17T03:34:36;100280.25;;;14.17;100.00
66668;BME280;57205;51.438;-2.006;2022-10-17T03:37:01;100283.22;;;14.16;100.00
66668;BME280;57205;51.438;-2.006;2022-10-17T03:39:27;100296.19;;;14.14;100.00
66668;BME280;57205;51.438;-2.006;2022-10-17T03:41:52;100291.69;;;14.09;99.85
66668;BME280;57205;51.438;-2.006;2022-10-17T03:44:18;100281.78;;;14.05;98.87
66668;BME280;57205;51.438;-2.006;2022-10-17T03:46:43;100284.56;;;14.00;98.18
66668;BME280;57205;51.438;-2.006;2022-10-17T03:49:09;100273.59;;;13.96;97.77
66668;BME280;57205;51.438;-2.006;2022-10-17T03:51:35;100283.88;;;13.94;97.04
66668;BME280;57205;51.438;-2.006;2022-10-17T03:54:01;100281.78;;;13.91;96.99
66668;BME280;57205;51.438;-2.006;2022-10-17T03:56:26;100288.81;;;13.87;95.85
66668;BME280;57205;51.438;-2.006;2022-10-17T03:58:53;100285.13;;;13.83;94.80
66668;BME280;57205;51.438;-2.006;2022-10-17T04:01:19;100284.09;;;13.79;92.71
66668;BME280;57205;51.438;-2.006;2022-10-17T04:03:52;100285.00;;;13.75;92.83
66668;BME280;57205;51.438;-2.006;2022-10-17T04:06:18;100296.63;;;13.70;91.64
66668;BME280;57205;51.438;-2.006;2022-10-17T04:08:44;100292.41;;;13.64;90.92
66668;BME280;57205;51.438;-2.006;2022-10-17T04:11:13;100286.03;;;13.60;90.22
66668;BME280;57205;51.438;-2.006;2022-10-17T04:13:39;100277.72;;;13.56;89.47
66668;BME280;57205;51.438;-2.006;2022-10-17T04:16:07;100300.94;;;13.52;90.02
66668;BME280;57205;51.438;-2.006;2022-10-17T04:18:33;100311.44;;;13.49;90.17
66668;BME280;57205;51.438;-2.006;2022-10-17T04:21:03;100312.84;;;13.46;89.94
66668;BME280;57205;51.438;-2.006;2022-10-17T04:23:30;100311.50;;;13.44;90.29
66668;BME280;57205;51.438;-2.006;2022-10-17T04:25:56;100312.91;;;13.41;90.79
66668;BME280;57205;51.438;-2.006;2022-10-17T04:28:22;100315.88;;;13.40;91.23
66668;BME280;57205;51.438;-2.006;2022-10-17T04:30:58;100319.06;;;13.42;91.29
66668;BME280;57205;51.438;-2.006;2022-10-17T04:33:24;100316.16;;;13.38;91.74
66668;BME280;57205;51.438;-2.006;2022-10-17T04:36:00;100319.16;;;13.37;92.36
66668;BME280;57205;51.438;-2.006;2022-10-17T04:38:27;100337.97;;;13.37;93.10
66668;BME280;57205;51.438;-2.006;2022-10-17T04:40:55;100330.47;;;13.34;93.41
66668;BME280;57205;51.438;-2.006;2022-10-17T04:43:21;100316.25;;;13.33;93.81
66668;BME280;57205;51.438;-2.006;2022-10-17T04:45:46;100331.84;;;13.31;94.13
66668;BME280;57205;51.438;-2.006;2022-10-17T04:48:11;100349.03;;;13.30;94.58
66668;BME280;57205;51.438;-2.006;2022-10-17T04:50:37;100357.09;;;13.30;95.34
66668;BME280;57205;51.438;-2.006;2022-10-17T04:53:02;100359.78;;;13.30;95.58
66668;BME280;57205;51.438;-2.006;2022-10-17T04:55:28;100364.91;;;13.32;96.19
66668;BME280;57205;51.438;-2.006;2022-10-17T04:57:53;100373.53;;;13.29;96.37
66668;BME280;57205;51.438;-2.006;2022-10-17T05:00:19;100373.22;;;13.30;97.18
66668;BME280;57205;51.438;-2.006;2022-10-17T05:02:44;100379.19;;;13.27;97.31
66668;BME280;57205;51.438;-2.006;2022-10-17T05:05:10;100386.97;;;13.29;97.84
66668;BME280;57205;51.438;-2.006;2022-10-17T05:07:39;100394.25;;;13.28;98.05
66668;BME280;57205;51.438;-2.006;2022-10-17T05:10:05;100399.88;;;13.27;98.50
66668;BME280;57205;51.438;-2.006;2022-10-17T05:12:30;100410.13;;;13.25;98.66
66668;BME280;57205;51.438;-2.006;2022-10-17T05:14:56;100412.78;;;13.25;99.21
66668;BME280;57205;51.438;-2.006;2022-10-17T05:17:21;100410.41;;;13.23;99.04
66668;BME280;57205;51.438;-2.006;2022-10-17T05:19:47;100412.56;;;13.21;99.20
66668;BME280;57205;51.438;-2.006;2022-10-17T05:22:12;100412.34;;;13.18;99.38
66668;BME280;57205;51.438;-2.006;2022-10-17T05:24:38;100421.81;;;13.15;99.28
66668;BME280;57205;51.438;-2.006;2022-10-17T05:27:03;100421.53;;;13.12;99.93
66668;BME280;57205;51.438;-2.006;2022-10-17T05:29:28;100433.69;;;13.09;100.00
66668;BME280;57205;51.438;-2.006;2022-10-17T05:31:54;100439.59;;;13.06;100.00
66668;BME280;57205;51.438;-2.006;2022-10-17T05:34:19;100441.81;;;13.04;100.00
66668;BME280;57205;51.438;-2.006;2022-10-17T05:36:45;100434.53;;;13.05;100.00
66668;BME280;57205;51.438;-2.006;2022-10-17T05:39:12;100436.13;;;13.06;100.00
66668;BME280;57205;51.438;-2.006;2022-10-17T05:41:39;100446.06;;;13.05;100.00
66668;BME280;57205;51.438;-2.006;2022-10-17T05:44:04;100453.03;;;13.06;100.00
66668;BME280;57205;51.438;-2.006;2022-10-17T05:46:30;100459.72;;;13.09;100.00
66668;BME280;57205;51.438;-2.006;2022-10-17T05:48:55;100457.34;;;13.07;100.00
66668;BME280;57205;51.438;-2.006;2022-10-17T05:51:20;100467.78;;;13.09;100.00
66668;BME280;57205;51.438;-2.006;2022-10-17T05:53:46;100467.78;;;13.09;100.00
66668;BME280;57205;51.438;-2.006;2022-10-17T05:56:12;100473.16;;;13.09;100.00
66668;BME280;57205;51.438;-2.006;2022-10-17T05:58:40;100480.41;;;13.08;100.00
66668;BME280;57205;51.438;-2.006;2022-10-17T06:01:07;100488.75;;;13.07;100.00
66668;BME280;57205;51.438;-2.006;2022-10-17T06:03:33;100492.53;;;13.06;100.00
66668;BME280;57205;51.438;-2.006;2022-10-17T06:06:06;100485.25;;;13.06;100.00
66668;BME280;57205;51.438;-2.006;2022-10-17T06:08:32;100495.22;;;13.06;100.00
66668;BME280;57205;51.438;-2.006;2022-10-17T06:10:58;100490.41;;;13.03;100.00
66668;BME280;57205;51.438;-2.006;2022-10-17T06:13:24;100500.59;;;13.01;100.00
66668;BME280;57205;51.438;-2.006;2022-10-17T06:15:50;100507.88;;;13.00;99.91
66668;BME280;57205;51.438;-2.006;2022-10-17T06:18:16;100508.41;;;12.97;100.00
66668;BME280;57205;51.438;-2.006;2022-10-17T06:20:41;100524.78;;;13.01;100.00
66668;BME280;57205;51.438;-2.006;2022-10-17T06:23:06;100519.41;;;13.01;99.93
66668;BME280;57205;51.438;-2.006;2022-10-17T06:25:32;100535.50;;;13.01;100.00
66668;BME280;57205;51.438;-2.006;2022-10-17T06:27:58;100529.91;;;12.97;100.00
66668;BME280;57205;51.438;-2.006;2022-10-17T06:30:24;100542.03;;;12.95;100.00
66668;BME280;57205;51.438;-2.006;2022-10-17T06:32:51;100541.50;;;12.93;100.00
66668;BME280;57205;51.438;-2.006;2022-10-17T06:35:17;100547.16;;;12.91;100.00
66668;BME280;57205;51.438;-2.006;2022-10-17T06:37:42;100556.81;;;12.92;100.00
66668;BME280;57205;51.438;-2.006;2022-10-17T06:40:08;100561.09;;;12.93;100.00
66668;BME280;57205;51.438;-2.006;2022-10-17T06:42:36;100563.00;;;12.93;100.00
66668;BME280;57205;51.438;-2.006;2022-10-17T06:45:01;100571.06;;;12.93;100.00
66668;BME280;57205;51.438;-2.006;2022-10-17T06:47:27;100575.84;;;12.96;100.00
66668;BME280;57205;51.438;-2.006;2022-10-17T06:49:54;100580.69;;;12.99;100.00
66668;BME280;57205;51.438;-2.006;2022-10-17T06:52:19;100590.34;;;13.00;100.00
66668;BME280;57205;51.438;-2.006;2022-10-17T06:54:44;100595.41;;;13.01;100.00
66668;BME280;57205;51.438;-2.006;2022-10-17T06:57:10;100600.53;;;13.03;100.00
66668;BME280;57205;51.438;-2.006;2022-10-17T06:59:35;100603.97;;;13.08;100.00
66668;BME280;57205;51.438;-2.006;2022-10-17T07:02:01;100608.53;;;13.13;100.00
66668;BME280;57205;51.438;-2.006;2022-10-17T07:04:27;100616.00;;;13.16;100.00
66668;BME280;57205;51.438;-2.006;2022-10-17T07:06:52;100624.31;;;13.19;99.76
66668;BME280;57205;51.438;-2.006;2022-10-17T07:09:18;100631.03;;;13.22;99.57
66668;BME280;57205;51.438;-2.006;2022-10-17T07:11:44;100633.13;;;13.25;99.32
66668;BME280;57205;51.438;-2.006;2022-10-17T07:14:11;100641.72;;;13.27;99.05
66668;BME280;57205;51.438;-2.006;2022-10-17T07:16:38;100645.47;;;13.31;98.83
66668;BME280;57205;51.438;-2.006;2022-10-17T07:19:03;100659.13;;;13.34;98.70
66668;BME280;57205;51.438;-2.006;2022-10-17T07:21:29;100669.06;;;13.39;97.90
66668;BME280;57205;51.438;-2.006;2022-10-17T07:23:54;100664.72;;;13.43;97.83
66668;BME280;57205;51.438;-2.006;2022-10-17T07:26:20;100677.81;;;13.49;97.18
66668;BME280;57205;51.438;-2.006;2022-10-17T07:28:46;100676.66;;;13.60;96.61
66668;BME280;57205;51.438;-2.006;2022-10-17T07:31:16;100690.78;;;13.76;96.03
66668;BME280;57205;51.438;-2.006;2022-10-17T07:33:43;100708.44;;;13.87;94.61
66668;BME280;57205;51.438;-2.006;2022-10-17T07:36:09;100705.91;;;13.96;93.40
66668;BME280;57205;51.438;-2.006;2022-10-17T07:38:35;100703.19;;;14.01;92.61
66668;BME280;57205;51.438;-2.006;2022-10-17T07:41:02;100715.25;;;14.03;92.20
66668;BME280;57205;51.438;-2.006;2022-10-17T07:43:28;100720.34;;;14.05;91.98
66668;BME280;57205;51.438;-2.006;2022-10-17T07:45:54;100725.47;;;14.06;91.99
66668;BME280;57205;51.438;-2.006;2022-10-17T07:48:21;100727.56;;;14.09;91.81
66668;BME280;57205;51.438;-2.006;2022-10-17T07:50:47;100728.69;;;14.08;91.91
66668;BME280;57205;51.438;-2.006;2022-10-17T07:53:13;100751.22;;;14.12;92.39
66668;BME280;57205;51.438;-2.006;2022-10-17T07:55:40;100739.66;;;14.12;92.12
66668;BME280;57205;51.438;-2.006;2022-10-17T07:58:07;100748.25;;;14.14;92.13
66668;BME280;57205;51.438;-2.006;2022-10-17T08:00:34;100757.63;;;14.16;91.82
66668;BME280;57205;51.438;-2.006;2022-10-17T08:02:59;100748.50;;;14.17;91.02
66668;BME280;57205;51.438;-2.006;2022-10-17T08:05:24;100757.09;;;14.19;90.93
66668;BME280;57205;51.438;-2.006;2022-10-17T08:07:50;100764.06;;;14.20;90.69
66668;BME280;57205;51.438;-2.006;2022-10-17T08:10:16;100763.25;;;14.20;90.80
66668;BME280;57205;51.438;-2.006;2022-10-17T08:12:41;100771.00;;;14.26;90.31
66668;BME280;57205;51.438;-2.006;2022-10-17T08:15:08;100769.63;;;14.34;90.82
66668;BME280;57205;51.438;-2.006;2022-10-17T08:17:35;100773.28;;;14.43;90.33
66668;BME280;57205;51.438;-2.006;2022-10-17T08:20:01;100779.03;;;14.60;88.54
66668;BME280;57205;51.438;-2.006;2022-10-17T08:22:27;100780.22;;;14.73;86.90
66668;BME280;57205;51.438;-2.006;2022-10-17T08:24:52;100775.81;;;14.82;87.18
66668;BME280;57205;51.438;-2.006;2022-10-17T08:27:18;100781.53;;;14.99;85.96
66668;BME280;57205;51.438;-2.006;2022-10-17T08:29:48;100794.13;;;15.22;84.14
66668;BME280;57205;51.438;-2.006;2022-10-17T08:32:21;100798.06;;;15.53;82.96
66668;BME280;57205;51.438;-2.006;2022-10-17T08:34:47;100808.72;;;15.95;81.00
66668;BME280;57205;51.438;-2.006;2022-10-17T08:37:13;100814.75;;;16.38;78.38
66668;BME280;57205;51.438;-2.006;2022-10-17T08:39:40;100813.38;;;16.54;75.60
66668;BME280;57205;51.438;-2.006;2022-10-17T08:45:10;100820.44;;;16.96;76.20
66668;BME280;57205;51.438;-2.006;2022-10-17T08:47:41;100821.06;;;17.28;73.02
66668;BME280;57205;51.438;-2.006;2022-10-17T08:50:17;100828.53;;;17.72;70.97
66668;BME280;57205;51.438;-2.006;2022-10-17T08:52:49;100836.28;;;18.31;69.55
66668;BME280;57205;51.438;-2.006;2022-10-17T08:55:23;100844.25;;;18.98;66.76
66668;BME280;57205;51.438;-2.006;2022-10-17T08:57:52;100833.88;;;19.39;64.87
66668;BME280;57205;51.438;-2.006;2022-10-17T09:00:19;100846.34;;;19.91;62.99
66668;BME280;57205;51.438;-2.006;2022-10-17T09:06:07;100862.09;;;20.58;59.12
66668;BME280;57205;51.438;-2.006;2022-10-17T09:14:05;100856.34;;;20.97;57.40
66668;BME280;57205;51.438;-2.006;2022-10-17T09:19:14;100857.53;;;21.16;56.22
66668;BME280;57205;51.438;-2.006;2022-10-17T09:21:45;100863.50;;;21.39;55.72
66668;BME280;57205;51.438;-2.006;2022-10-17T09:24:19;100864.41;;;21.22;55.20
66668;BME280;57205;51.438;-2.006;2022-10-17T09:26:49;100877.06;;;21.18;55.90
66668;BME280;57205;51.438;-2.006;2022-10-17T09:29:25;100883.50;;;21.14;55.80
66668;BME280;57205;51.438;-2.006;2022-10-17T09:32:01;100884.53;;;21.30;55.70
66668;BME280;57205;51.438;-2.006;2022-10-17T09:34:31;100898.81;;;21.27;55.39
66668;BME280;57205;51.438;-2.006;2022-10-17T09:36:58;100899.59;;;21.27;54.88
66668;BME280;57205;51.438;-2.006;2022-10-17T09:39:25;100873.78;;;21.04;54.61
66668;BME280;57205;51.438;-2.006;2022-10-17T09:41:55;100909.38;;;20.74;55.60
66668;BME280;57205;51.438;-2.006;2022-10-17T09:44:29;100917.34;;;20.87;55.52
66668;BME280;57205;51.438;-2.006;2022-10-17T09:47:36;100927.13;;;20.80;54.68
66668;BME280;57205;51.438;-2.006;2022-10-17T09:50:00;100924.59;;;20.66;55.17
66668;BME280;57205;51.438;-2.006;2022-10-17T09:52:30;100939.69;;;20.47;55.21
66668;BME280;57205;51.438;-2.006;2022-10-17T09:55:02;100938.38;;;20.01;55.74
66668;BME280;57205;51.438;-2.006;2022-10-17T09:58:00;100938.38;;;19.84;56.55
66668;BME280;57205;51.438;-2.006;2022-10-17T10:00:35;100951.97;;;19.93;56.29
66668;BME280;57205;51.438;-2.006;2022-10-17T10:03:09;100946.50;;;19.76;55.63
66668;BME280;57205;51.438;-2.006;2022-10-17T10:05:35;100952.25;;;19.66;56.26
66668;BME280;57205;51.438;-2.006;2022-10-17T10:08:03;100966.91;;;19.56;56.91
66668;BME280;57205;51.438;-2.006;2022-10-17T10:10:30;100956.72;;;19.70;56.82
66668;BME280;57205;51.438;-2.006;2022-10-17T10:15:45;100969.72;;;19.42;56.56
66668;BME280;57205;51.438;-2.006;2022-10-17T10:18:32;100967.50;;;19.14;56.47
66668;BME280;57205;51.438;-2.006;2022-10-17T10:23:36;100983.72;;;18.97;56.77
66668;BME280;57205;51.438;-2.006;2022-10-17T10:26:17;101000.75;;;18.97;56.89
66668;BME280;57205;51.438;-2.006;2022-10-17T10:28:57;101002.81;;;18.92;57.03
66668;BME280;57205;51.438;-2.006;2022-10-17T10:31:47;101003.78;;;18.96;57.01
66668;BME280;57205;51.438;-2.006;2022-10-17T10:34:21;101005.41;;;18.97;57.57
66668;BME280;57205;51.438;-2.006;2022-10-17T10:36:52;101009.75;;;18.84;56.06
66668;BME280;57205;51.438;-2.006;2022-10-17T10:39:39;100998.50;;;18.69;55.90
66668;BME280;57205;51.438;-2.006;2022-10-17T10:42:16;101004.53;;;18.66;55.94
66668;BME280;57205;51.438;-2.006;2022-10-17T10:44:42;101010.44;;;18.68;56.79
66668;BME280;57205;51.438;-2.006;2022-10-17T10:47:24;101013.16;;;18.68;55.77
66668;BME280;57205;51.438;-2.006;2022-10-17T10:50:05;101015.69;;;18.64;55.77
66668;BME280;57205;51.438;-2.006;2022-10-17T10:52:39;101024.00;;;18.68;55.99
66668;BME280;57205;51.438;-2.006;2022-10-17T10:55:26;101040.66;;;18.75;54.83
66668;BME280;57205;51.438;-2.006;2022-10-17T10:57:59;101044.28;;;18.70;54.87
66668;BME280;57205;51.438;-2.006;2022-10-17T11:00:28;101057.34;;;18.68;55.79
66668;BME280;57205;51.438;-2.006;2022-10-17T11:03:09;101061.72;;;18.78;55.75
66668;BME280;57205;51.438;-2.006;2022-10-17T11:06:18;101060.88;;;18.69;54.62
66668;BME280;57205;51.438;-2.006;2022-10-17T11:08:51;101063.09;;;18.67;54.36
66668;BME280;57205;51.438;-2.006;2022-10-17T11:11:27;101058.38;;;18.59;54.62
66668;BME280;57205;51.438;-2.006;2022-10-17T11:14:05;101066.19;;;18.60;55.08
66668;BME280;57205;51.438;-2.006;2022-10-17T11:16:39;101068.00;;;18.65;55.41
66668;BME280;57205;51.438;-2.006;2022-10-17T11:19:14;101067.19;;;18.64;54.22
66668;BME280;57205;51.438;-2.006;2022-10-17T11:22:43;101067.88;;;18.70;55.33
66668;BME280;57205;51.438;-2.006;2022-10-17T11:24:42;101071.03;;;18.63;55.67
66668;BME280;57205;51.438;-2.006;2022-10-17T11:27:10;101083.09;;;18.57;55.55
66668;BME280;57205;51.438;-2.006;2022-10-17T11:29:38;101073.41;;;18.42;55.69
66668;BME280;57205;51.438;-2.006;2022-10-17T11:35:35;101093.53;;;18.36;56.81
66668;BME280;57205;51.438;-2.006;2022-10-17T11:38:07;101094.94;;;18.34;56.72
66668;BME280;57205;51.438;-2.006;2022-10-17T11:40:40;101101.59;;;18.28;56.25
66668;BME280;57205;51.438;-2.006;2022-10-17T11:45:50;101099.28;;;18.21;56.97
66668;BME280;57205;51.438;-2.006;2022-10-17T11:48:34;101098.78;;;18.19;55.73
66668;BME280;57205;51.438;-2.006;2022-10-17T11:51:10;101105.63;;;18.17;56.20
66668;BME280;57205;51.438;-2.006;2022-10-17T11:56:10;101117.84;;;18.14;56.97
66668;BME280;57205;51.438;-2.006;2022-10-17T12:01:45;101130.00;;;18.03;56.03
66668;BME280;57205;51.438;-2.006;2022-10-17T12:07:58;101141.94;;;17.89;55.84
66668;BME280;57205;51.438;-2.006;2022-10-17T12:12:55;101160.78;;;17.94;57.01
66668;BME280;57205;51.438;-2.006;2022-10-17T12:17:58;101160.88;;;18.02;55.25
66668;BME280;57205;51.438;-2.006;2022-10-17T12:25:51;101158.69;;;18.18;54.75
66668;BME280;57205;51.438;-2.006;2022-10-17T12:28:27;101156.91;;;18.13;53.99
66668;BME280;57205;51.438;-2.006;2022-10-17T12:31:10;101149.66;;;18.09;54.59
66668;BME280;57205;51.438;-2.006;2022-10-17T12:38:48;101172.69;;;17.79;53.30
66668;BME280;57205;51.438;-2.006;2022-10-17T12:41:14;101161.34;;;17.77;54.12
66668;BME280;57205;51.438;-2.006;2022-10-17T12:43:49;101159.88;;;17.85;54.61
66668;BME280;57205;51.438;-2.006;2022-10-17T13:00:18;101179.16;;;18.24;54.13
66668;BME280;57205;51.438;-2.006;2022-10-17T13:02:45;101175.53;;;18.28;53.56
66668;BME280;57205;51.438;-2.006;2022-10-17T13:05:21;101179.47;;;18.22;53.48
66668;BME280;57205;51.438;-2.006;2022-10-17T13:07:49;101182.25;;;18.17;53.64
66668;BME280;57205;51.438;-2.006;2022-10-17T13:10:23;101187.16;;;18.15;53.24
66668;BME280;57205;51.438;-2.006;2022-10-17T13:12:51;101187.06;;;18.07;53.62
66668;BME280;57205;51.438;-2.006;2022-10-17T13:15:19;101185.75;;;18.04;53.21
66668;BME280;57205;51.438;-2.006;2022-10-17T13:17:54;101192.78;;;18.05;53.76
66668;BME280;57205;51.438;-2.006;2022-10-17T13:20:22;101197.59;;;18.08;54.50
66668;BME280;57205;51.438;-2.006;2022-10-17T13:22:49;101183.16;;;18.13;53.56
66668;BME280;57205;51.438;-2.006;2022-10-17T13:25:17;101175.44;;;18.20;53.78
66668;BME280;57205;51.438;-2.006;2022-10-17T13:27:44;101186.97;;;18.25;52.64
66668;BME280;57205;51.438;-2.006;2022-10-17T13:30:27;101187.47;;;18.27;52.73
66668;BME280;57205;51.438;-2.006;2022-10-17T13:32:53;101186.09;;;18.30;52.35
66668;BME280;57205;51.438;-2.006;2022-10-17T13:35:32;101179.47;;;18.22;52.74
66668;BME280;57205;51.438;-2.006;2022-10-17T13:38:01;101190.88;;;18.19;53.55
66668;BME280;57205;51.438;-2.006;2022-10-17T13:40:29;101196.91;;;18.16;53.64
66668;BME280;57205;51.438;-2.006;2022-10-17T13:42:56;101193.91;;;18.18;53.82
66668;BME280;57205;51.438;-2.006;2022-10-17T13:45:36;101196.50;;;18.23;53.33
66668;BME280;57205;51.438;-2.006;2022-10-17T13:48:05;101186.88;;;18.30;53.40
66668;BME280;57205;51.438;-2.006;2022-10-17T13:50:36;101196.50;;;18.36;53.30
66668;BME280;57205;51.438;-2.006;2022-10-17T13:53:35;101201.03;;;18.41;53.35
66668;BME280;57205;51.438;-2.006;2022-10-17T13:56:26;101204.56;;;18.41;53.76
66668;BME280;57205;51.438;-2.006;2022-10-17T13:58:56;101210.66;;;18.33;53.46
66668;BME280;57205;51.438;-2.006;2022-10-17T14:01:24;101212.38;;;18.29;53.07
66668;BME280;57205;51.438;-2.006;2022-10-17T14:03:51;101218.38;;;18.26;53.75
66668;BME280;57205;51.438;-2.006;2022-10-17T14:06:21;101208.16;;;18.23;53.85
66668;BME280;57205;51.438;-2.006;2022-10-17T14:08:55;101208.25;;;18.18;53.34
66668;BME280;57205;51.438;-2.006;2022-10-17T14:11:26;101210.34;;;18.21;52.95
66668;BME280;57205;51.438;-2.006;2022-10-17T14:13:54;101219.28;;;18.22;53.62
66668;BME280;57205;51.438;-2.006;2022-10-17T14:16:21;101218.69;;;18.25;53.68
66668;BME280;57205;51.438;-2.006;2022-10-17T14:18:49;101221.00;;;18.31;54.52